sensor_id;sensor_type;location;lat;lon;timestamp;pressure;altitude;pressure_sealevel;temperature
66403;BMP180;53212;52.112;5.144;2023-12-14T00:00:24;100929.20;;;6.28
66403;BMP180;53212;52.112;5.144;2023-12-14T00:02:50;100934.00;;;6.20
66403;BMP180;53212;52.112;5.144;2023-12-14T00:05:15;100935.20;;;6.20
66403;BMP180;53212;52.112;5.144;2023-12-14T00:07:41;100933.60;;;6.20
66403;BMP180;53212;52.112;5.144;2023-12-14T00:10:07;100950.00;;;6.20
66403;BMP180;53212;52.112;5.144;2023-12-14T00:12:33;100955.60;;;6.20
66403;BMP180;53212;52.112;5.144;2023-12-14T00:14:58;100964.80;;;6.20
66403;BMP180;53212;52.112;5.144;2023-12-14T00:17:24;100972.20;;;6.20
66403;BMP180;53212;52.112;5.144;2023-12-14T00:19:49;100977.00;;;6.20
66403;BMP180;53212;52.112;5.144;2023-12-14T00:22:14;100977.20;;;6.20
66403;BMP180;53212;52.112;5.144;2023-12-14T00:24:40;100984.40;;;6.20
66403;BMP180;53212;52.112;5.144;2023-12-14T00:27:05;100983.20;;;6.20
66403;BMP180;53212;52.112;5.144;2023-12-14T00:29:31;100984.60;;;6.20
66403;BMP180;53212;52.112;5.144;2023-12-14T00:31:56;100989.20;;;6.20
66403;BMP180;53212;52.112;5.144;2023-12-14T00:34:22;100988.00;;;6.12
66403;BMP180;53212;52.112;5.144;2023-12-14T00:36:47;100988.40;;;6.10
66403;BMP180;53212;52.112;5.144;2023-12-14T00:39:13;100987.80;;;6.10
66403;BMP180;53212;52.112;5.144;2023-12-14T00:41:38;100992.60;;;6.10
66403;BMP180;53212;52.112;5.144;2023-12-14T00:44:04;101001.60;;;6.10
66403;BMP180;53212;52.112;5.144;2023-12-14T00:46:29;101006.60;;;6.14
66403;BMP180;53212;52.112;5.144;2023-12-14T00:48:54;101013.40;;;6.12
66403;BMP180;53212;52.112;5.144;2023-12-14T00:51:20;101018.80;;;6.18
66403;BMP180;53212;52.112;5.144;2023-12-14T00:53:45;101025.60;;;6.12
66403;BMP180;53212;52.112;5.144;2023-12-14T00:56:10;101029.00;;;6.10
66403;BMP180;53212;52.112;5.144;2023-12-14T00:58:36;101029.20;;;6.10
66403;BMP180;53212;52.112;5.144;2023-12-14T01:01:02;101036.20;;;6.10
66403;BMP180;53212;52.112;5.144;2023-12-14T01:03:27;101043.00;;;6.08
66403;BMP180;53212;52.112;5.144;2023-12-14T01:05:52;101049.60;;;6.00
66403;BMP180;53212;52.112;5.144;2023-12-14T01:08:18;101054.40;;;6.00
66403;BMP180;53212;52.112;5.144;2023-12-14T01:10:43;101058.80;;;6.00
66403;BMP180;53212;52.112;5.144;2023-12-14T01:13:09;101060.20;;;6.00
66403;BMP180;53212;52.112;5.144;2023-12-14T01:15:35;101059.40;;;6.00
66403;BMP180;53212;52.112;5.144;2023-12-14T01:18:00;101059.60;;;6.00
66403;BMP180;53212;52.112;5.144;2023-12-14T01:20:25;101065.80;;;6.00
66403;BMP180;53212;52.112;5.144;2023-12-14T01:22:51;101073.20;;;6.00
66403;BMP180;53212;52.112;5.144;2023-12-14T01:25:16;101073.20;;;6.00
66403;BMP180;53212;52.112;5.144;2023-12-14T01:27:42;101064.60;;;6.00
66403;BMP180;53212;52.112;5.144;2023-12-14T01:30:08;101077.20;;;5.98
66403;BMP180;53212;52.112;5.144;2023-12-14T01:32:33;101078.80;;;6.00
66403;BMP180;53212;52.112;5.144;2023-12-14T01:35:00;101088.80;;;6.00
66403;BMP180;53212;52.112;5.144;2023-12-14T01:37:25;101092.40;;;6.00
66403;BMP180;53212;52.112;5.144;2023-12-14T01:39:50;101100.00;;;6.00
66403;BMP180;53212;52.112;5.144;2023-12-14T01:42:16;101103.40;;;6.00
66403;BMP180;53212;52.112;5.144;2023-12-14T01:44:41;101105.80;;;6.00
66403;BMP180;53212;52.112;5.144;2023-12-14T01:47:07;101112.60;;;5.94
66403;BMP180;53212;52.112;5.144;2023-12-14T01:49:33;101117.20;;;5.96
66403;BMP180;53212;52.112;5.144;2023-12-14T01:51:58;101122.60;;;5.98
66403;BMP180;53212;52.112;5.144;2023-12-14T01:54:23;101126.20;;;5.98
66403;BMP180;53212;52.112;5.144;2023-12-14T01:56:49;101128.80;;;5.90
66403;BMP180;53212;52.112;5.144;2023-12-14T01:59:14;101141.00;;;5.90
66403;BMP180;53212;52.112;5.144;2023-12-14T02:01:46;101141.20;;;5.92
66403;BMP180;53212;52.112;5.144;2023-12-14T02:04:13;101150.00;;;5.90
66403;BMP180;53212;52.112;5.144;2023-12-14T02:06:39;101150.20;;;5.90
66403;BMP180;53212;52.112;5.144;2023-12-14T02:09:05;101156.60;;;5.90
66403;BMP180;53212;52.112;5.144;2023-12-14T02:11:30;101162.00;;;5.90
66403;BMP180;53212;52.112;5.144;2023-12-14T02:13:56;101168.00;;;5.90
66403;BMP180;53212;52.112;5.144;2023-12-14T02:16:21;101169.80;;;5.90
66403;BMP180;53212;52.112;5.144;2023-12-14T02:18:47;101180.40;;;5.90
66403;BMP180;53212;52.112;5.144;2023-12-14T02:21:12;101180.00;;;5.90
66403;BMP180;53212;52.112;5.144;2023-12-14T02:23:45;101184.40;;;5.90
66403;BMP180;53212;52.112;5.144;2023-12-14T02:26:14;101193.60;;;5.90
66403;BMP180;53212;52.112;5.144;2023-12-14T02:28:40;101197.20;;;5.90
66403;BMP180;53212;52.112;5.144;2023-12-14T02:31:05;101200.00;;;5.90
66403;BMP180;53212;52.112;5.144;2023-12-14T02:33:31;101207.60;;;5.90
66403;BMP180;53212;52.112;5.144;2023-12-14T02:35:56;101208.20;;;5.90
66403;BMP180;53212;52.112;5.144;2023-12-14T02:38:22;101221.60;;;5.90
66403;BMP180;53212;52.112;5.144;2023-12-14T02:40:47;101218.20;;;5.90
66403;BMP180;53212;52.112;5.144;2023-12-14T02:43:15;101218.80;;;5.90
66403;BMP180;53212;52.112;5.144;2023-12-14T02:45:41;101218.20;;;5.90
66403;BMP180;53212;52.112;5.144;2023-12-14T02:48:06;101223.60;;;5.86
66403;BMP180;53212;52.112;5.144;2023-12-14T02:50:32;101220.20;;;5.82
66403;BMP180;53212;52.112;5.144;2023-12-14T02:52:57;101226.00;;;5.80
66403;BMP180;53212;52.112;5.144;2023-12-14T02:55:23;101234.60;;;5.80
66403;BMP180;53212;52.112;5.144;2023-12-14T02:57:48;101238.20;;;5.80
66403;BMP180;53212;52.112;5.144;2023-12-14T03:00:14;101240.80;;;5.80
66403;BMP180;53212;52.112;5.144;2023-12-14T03:02:40;101245.20;;;5.80
66403;BMP180;53212;52.112;5.144;2023-12-14T03:05:05;101250.80;;;5.80
66403;BMP180;53212;52.112;5.144;2023-12-14T03:07:31;101249.40;;;5.80
66403;BMP180;53212;52.112;5.144;2023-12-14T03:09:56;101252.00;;;5.80
66403;BMP180;53212;52.112;5.144;2023-12-14T03:12:22;101255.40;;;5.80
66403;BMP180;53212;52.112;5.144;2023-12-14T03:14:47;101251.20;;;5.80
66403;BMP180;53212;52.112;5.144;2023-12-14T03:17:12;101248.60;;;5.80
66403;BMP180;53212;52.112;5.144;2023-12-14T03:19:41;101251.00;;;5.80
66403;BMP180;53212;52.112;5.144;2023-12-14T03:22:07;101257.00;;;5.80
66403;BMP180;53212;52.112;5.144;2023-12-14T03:24:33;101264.40;;;5.80
66403;BMP180;53212;52.112;5.144;2023-12-14T03:26:58;101257.80;;;5.80
66403;BMP180;53212;52.112;5.144;2023-12-14T03:29:24;101259.80;;;5.80
66403;BMP180;53212;52.112;5.144;2023-12-14T03:31:49;101260.40;;;5.70
66403;BMP180;53212;52.112;5.144;2023-12-14T03:34:15;101258.40;;;5.70
66403;BMP180;53212;52.112;5.144;2023-12-14T03:36:40;101255.00;;;5.70
66403;BMP180;53212;52.112;5.144;2023-12-14T03:39:05;101249.60;;;5.70
66403;BMP180;53212;52.112;5.144;2023-12-14T03:41:31;101254.60;;;5.70
66403;BMP180;53212;52.112;5.144;2023-12-14T03:43:57;101257.60;;;5.70
66403;BMP180;53212;52.112;5.144;2023-12-14T03:46:23;101265.60;;;5.70
66403;BMP180;53212;52.112;5.144;2023-12-14T03:48:48;101266.00;;;5.70
66403;BMP180;53212;52.112;5.144;2023-12-14T03:51:18;101263.60;;;5.66
66403;BMP180;53212;52.112;5.144;2023-12-14T03:53:44;101267.40;;;5.64
66403;BMP180;53212;52.112;5.144;2023-12-14T03:56:11;101277.60;;;5.60
66403;BMP180;53212;52.112;5.144;2023-12-14T03:58:36;101288.40;;;5.60
66403;BMP180;53212;52.112;5.144;2023-12-14T04:01:02;101288.40;;;5.60
66403;BMP180;53212;52.112;5.144;2023-12-14T04:03:27;101289.40;;;5.60
66403;BMP180;53212;52.112;5.144;2023-12-14T04:05:53;101290.80;;;5.60
66403;BMP180;53212;52.112;5.144;2023-12-14T04:08:18;101291.00;;;5.60
66403;BMP180;53212;52.112;5.144;2023-12-14T04:10:43;101294.60;;;5.62
66403;BMP180;53212;52.112;5.144;2023-12-14T04:13:09;101294.40;;;5.60
66403;BMP180;53212;52.112;5.144;2023-12-14T04:15:34;101293.80;;;5.60
66403;BMP180;53212;52.112;5.144;2023-12-14T04:18:00;101308.40;;;5.60
66403;BMP180;53212;52.112;5.144;2023-12-14T04:20:26;101307.40;;;5.60
66403;BMP180;53212;52.112;5.144;2023-12-14T04:22:51;101310.00;;;5.50
66403;BMP180;53212;52.112;5.144;2023-12-14T04:25:17;101317.40;;;5.50
66403;BMP180;53212;52.112;5.144;2023-12-14T04:27:45;101324.20;;;5.50
66403;BMP180;53212;52.112;5.144;2023-12-14T04:30:11;101330.60;;;5.50
66403;BMP180;53212;52.112;5.144;2023-12-14T04:32:39;101329.80;;;5.50
66403;BMP180;53212;52.112;5.144;2023-12-14T04:35:06;101331.80;;;5.50
66403;BMP180;53212;52.112;5.144;2023-12-14T04:37:31;101340.60;;;5.50
66403;BMP180;53212;52.112;5.144;2023-12-14T04:39:57;101340.20;;;5.50
66403;BMP180;53212;52.112;5.144;2023-12-14T04:42:23;101344.80;;;5.50
66403;BMP180;53212;52.112;5.144;2023-12-14T04:44:48;101355.00;;;5.48
66403;BMP180;53212;52.112;5.144;2023-12-14T04:47:14;101358.60;;;5.50
66403;BMP180;53212;52.112;5.144;2023-12-14T04:49:40;101369.80;;;5.50
66403;BMP180;53212;52.112;5.144;2023-12-14T04:52:05;101377.00;;;5.50
66403;BMP180;53212;52.112;5.144;2023-12-14T04:54:31;101381.20;;;5.50
66403;BMP180;53212;52.112;5.144;2023-12-14T04:56:57;101382.80;;;5.50
66403;BMP180;53212;52.112;5.144;2023-12-14T04:59:22;101387.60;;;5.50
66403;BMP180;53212;52.112;5.144;2023-12-14T05:01:47;101395.40;;;5.50
66403;BMP180;53212;52.112;5.144;2023-12-14T05:04:13;101401.00;;;5.50
66403;BMP180;53212;52.112;5.144;2023-12-14T05:06:38;101414.60;;;5.50
66403;BMP180;53212;52.112;5.144;2023-12-14T05:09:04;101420.20;;;5.40
66403;BMP180;53212;52.112;5.144;2023-12-14T05:11:31;101425.80;;;5.40
66403;BMP180;53212;52.112;5.144;2023-12-14T05:13:57;101426.80;;;5.40
66403;BMP180;53212;52.112;5.144;2023-12-14T05:16:23;101432.00;;;5.30
66403;BMP180;53212;52.112;5.144;2023-12-14T05:18:55;101436.00;;;5.30
66403;BMP180;53212;52.112;5.144;2023-12-14T05:21:22;101449.20;;;5.30
66403;BMP180;53212;52.112;5.144;2023-12-14T05:23:47;101455.20;;;5.30
66403;BMP180;53212;52.112;5.144;2023-12-14T05:26:13;101455.00;;;5.30
66403;BMP180;53212;52.112;5.144;2023-12-14T05:28:38;101462.00;;;5.30
66403;BMP180;53212;52.112;5.144;2023-12-14T05:31:04;101466.80;;;5.30
66403;BMP180;53212;52.112;5.144;2023-12-14T05:33:29;101463.40;;;5.30
66403;BMP180;53212;52.112;5.144;2023-12-14T05:35:57;101468.40;;;5.30
66403;BMP180;53212;52.112;5.144;2023-12-14T05:38:22;101469.40;;;5.28
66403;BMP180;53212;52.112;5.144;2023-12-14T05:40:47;101471.00;;;5.22
66403;BMP180;53212;52.112;5.144;2023-12-14T05:43:13;101481.80;;;5.20
66403;BMP180;53212;52.112;5.144;2023-12-14T05:45:38;101482.00;;;5.20
66403;BMP180;53212;52.112;5.144;2023-12-14T05:48:04;101482.80;;;5.20
66403;BMP180;53212;52.112;5.144;2023-12-14T05:50:33;101485.60;;;5.20
66403;BMP180;53212;52.112;5.144;2023-12-14T05:52:58;101498.80;;;5.20
66403;BMP180;53212;52.112;5.144;2023-12-14T05:55:24;101501.20;;;5.20
66403;BMP180;53212;52.112;5.144;2023-12-14T05:57:49;101502.80;;;5.20
66403;BMP180;53212;52.112;5.144;2023-12-14T06:00:17;101505.40;;;5.20
66403;BMP180;53212;52.112;5.144;2023-12-14T06:02:42;101503.20;;;5.20
66403;BMP180;53212;52.112;5.144;2023-12-14T06:05:08;101507.40;;;5.14
66403;BMP180;53212;52.112;5.144;2023-12-14T06:07:33;101509.80;;;5.10
66403;BMP180;53212;52.112;5.144;2023-12-14T06:09:59;101512.40;;;5.10
66403;BMP180;53212;52.112;5.144;2023-12-14T06:12:26;101512.00;;;5.10
66403;BMP180;53212;52.112;5.144;2023-12-14T06:14:51;101511.20;;;5.10
66403;BMP180;53212;52.112;5.144;2023-12-14T06:17:17;101510.20;;;5.10
66403;BMP180;53212;52.112;5.144;2023-12-14T06:19:42;101516.40;;;5.10
66403;BMP180;53212;52.112;5.144;2023-12-14T06:22:07;101523.60;;;5.10
66403;BMP180;53212;52.112;5.144;2023-12-14T06:24:33;101532.80;;;5.10
66403;BMP180;53212;52.112;5.144;2023-12-14T06:26:58;101539.60;;;5.10
66403;BMP180;53212;52.112;5.144;2023-12-14T06:29:24;101547.60;;;5.10
66403;BMP180;53212;52.112;5.144;2023-12-14T06:31:49;101550.20;;;5.10
66403;BMP180;53212;52.112;5.144;2023-12-14T06:34:16;101556.40;;;5.10
66403;BMP180;53212;52.112;5.144;2023-12-14T06:36:44;101572.40;;;5.10
66403;BMP180;53212;52.112;5.144;2023-12-14T06:39:10;101578.00;;;5.10
66403;BMP180;53212;52.112;5.144;2023-12-14T06:41:36;101575.20;;;5.06
66403;BMP180;53212;52.112;5.144;2023-12-14T06:44:01;101578.40;;;5.00
66403;BMP180;53212;52.112;5.144;2023-12-14T06:46:26;101581.00;;;5.00
66403;BMP180;53212;52.112;5.144;2023-12-14T06:48:52;101591.20;;;5.04
66403;BMP180;53212;52.112;5.144;2023-12-14T06:51:18;101589.00;;;5.08
66403;BMP180;53212;52.112;5.144;2023-12-14T06:53:44;101600.80;;;5.10
66403;BMP180;53212;52.112;5.144;2023-12-14T06:56:11;101613.80;;;5.02
66403;BMP180;53212;52.112;5.144;2023-12-14T06:58:41;101619.60;;;5.00
66403;BMP180;53212;52.112;5.144;2023-12-14T07:01:11;101622.40;;;5.00
66403;BMP180;53212;52.112;5.144;2023-12-14T07:03:40;101630.60;;;5.00
66403;BMP180;53212;52.112;5.144;2023-12-14T07:06:07;101641.40;;;5.00
66403;BMP180;53212;52.112;5.144;2023-12-14T07:08:33;101627.20;;;5.00
66403;BMP180;53212;52.112;5.144;2023-12-14T07:10:58;101631.20;;;5.00
66403;BMP180;53212;52.112;5.144;2023-12-14T07:13:24;101631.00;;;5.00
66403;BMP180;53212;52.112;5.144;2023-12-14T07:15:49;101638.80;;;5.00
66403;BMP180;53212;52.112;5.144;2023-12-14T07:18:15;101645.60;;;4.90
66403;BMP180;53212;52.112;5.144;2023-12-14T07:20:40;101645.40;;;4.90
66403;BMP180;53212;52.112;5.144;2023-12-14T07:23:05;101648.40;;;4.90
66403;BMP180;53212;52.112;5.144;2023-12-14T07:25:31;101647.60;;;4.90
66403;BMP180;53212;52.112;5.144;2023-12-14T07:27:56;101657.40;;;4.84
66403;BMP180;53212;52.112;5.144;2023-12-14T07:30:22;101664.20;;;4.82
66403;BMP180;53212;52.112;5.144;2023-12-14T07:32:47;101668.00;;;4.84
66403;BMP180;53212;52.112;5.144;2023-12-14T07:35:13;101662.80;;;4.80
66403;BMP180;53212;52.112;5.144;2023-12-14T07:37:38;101666.60;;;4.80
66403;BMP180;53212;52.112;5.144;2023-12-14T07:40:05;101677.80;;;4.80
66403;BMP180;53212;52.112;5.144;2023-12-14T07:42:30;101684.00;;;4.80
66403;BMP180;53212;52.112;5.144;2023-12-14T07:44:56;101677.80;;;4.80
66403;BMP180;53212;52.112;5.144;2023-12-14T07:47:22;101680.00;;;4.80
66403;BMP180;53212;52.112;5.144;2023-12-14T07:49:47;101684.20;;;4.86
66403;BMP180;53212;52.112;5.144;2023-12-14T07:52:13;101685.00;;;4.90
66403;BMP180;53212;52.112;5.144;2023-12-14T07:54:39;101689.60;;;4.90
66403;BMP180;53212;52.112;5.144;2023-12-14T07:57:05;101691.80;;;4.96
66403;BMP180;53212;52.112;5.144;2023-12-14T07:59:30;101701.80;;;5.00
66403;BMP180;53212;52.112;5.144;2023-12-14T08:01:56;101701.60;;;5.00
66403;BMP180;53212;52.112;5.144;2023-12-14T08:04:21;101700.80;;;5.00
66403;BMP180;53212;52.112;5.144;2023-12-14T08:06:46;101709.60;;;5.00
66403;BMP180;53212;52.112;5.144;2023-12-14T08:09:12;101716.00;;;5.00
66403;BMP180;53212;52.112;5.144;2023-12-14T08:11:37;101720.40;;;5.04
66403;BMP180;53212;52.112;5.144;2023-12-14T08:14:03;101711.00;;;5.10
66403;BMP180;53212;52.112;5.144;2023-12-14T08:16:28;101715.60;;;5.02
66403;BMP180;53212;52.112;5.144;2023-12-14T08:18:54;101715.00;;;5.04
66403;BMP180;53212;52.112;5.144;2023-12-14T08:21:19;101712.60;;;5.10
66403;BMP180;53212;52.112;5.144;2023-12-14T08:23:45;101714.80;;;5.10
66403;BMP180;53212;52.112;5.144;2023-12-14T08:26:10;101714.40;;;5.10
66403;BMP180;53212;52.112;5.144;2023-12-14T08:28:39;101718.20;;;5.12
66403;BMP180;53212;52.112;5.144;2023-12-14T08:31:04;101724.60;;;5.10
66403;BMP180;53212;52.112;5.144;2023-12-14T08:33:30;101725.40;;;5.10
66403;BMP180;53212;52.112;5.144;2023-12-14T08:35:56;101735.40;;;5.10
66403;BMP180;53212;52.112;5.144;2023-12-14T08:38:22;101736.40;;;5.10
66403;BMP180;53212;52.112;5.144;2023-12-14T08:40:48;101744.40;;;5.10
66403;BMP180;53212;52.112;5.144;2023-12-14T08:43:13;101741.80;;;5.10
66403;BMP180;53212;52.112;5.144;2023-12-14T08:45:39;101752.80;;;5.10
66403;BMP180;53212;52.112;5.144;2023-12-14T08:48:05;101759.20;;;5.20
66403;BMP180;53212;52.112;5.144;2023-12-14T08:50:30;101769.00;;;5.20
66403;BMP180;53212;52.112;5.144;2023-12-14T08:52:56;101781.20;;;5.20
66403;BMP180;53212;52.112;5.144;2023-12-14T08:55:24;101776.80;;;5.20
66403;BMP180;53212;52.112;5.144;2023-12-14T08:57:50;101776.00;;;5.20
66403;BMP180;53212;52.112;5.144;2023-12-14T09:00:17;101783.60;;;5.30
66403;BMP180;53212;52.112;5.144;2023-12-14T09:02:46;101780.20;;;5.32
66403;BMP180;53212;52.112;5.144;2023-12-14T09:05:12;101787.00;;;5.40
66403;BMP180;53212;52.112;5.144;2023-12-14T09:07:38;101790.20;;;5.46
66403;BMP180;53212;52.112;5.144;2023-12-14T09:10:04;101796.80;;;5.50
66403;BMP180;53212;52.112;5.144;2023-12-14T09:12:35;101799.80;;;5.52
66403;BMP180;53212;52.112;5.144;2023-12-14T09:15:02;101809.60;;;5.60
66403;BMP180;53212;52.112;5.144;2023-12-14T09:17:27;101808.80;;;5.60
66403;BMP180;53212;52.112;5.144;2023-12-14T09:20:01;101809.80;;;5.70
66403;BMP180;53212;52.112;5.144;2023-12-14T09:22:26;101809.00;;;5.90
66403;BMP180;53212;52.112;5.144;2023-12-14T09:24:52;101814.60;;;5.92
66403;BMP180;53212;52.112;5.144;2023-12-14T09:27:18;101824.20;;;6.02
66403;BMP180;53212;52.112;5.144;2023-12-14T09:29:43;101829.40;;;6.10
66403;BMP180;53212;52.112;5.144;2023-12-14T09:32:09;101833.20;;;6.20
66403;BMP180;53212;52.112;5.144;2023-12-14T09:34:35;101836.40;;;6.24
66403;BMP180;53212;52.112;5.144;2023-12-14T09:37:00;101836.20;;;6.30
66403;BMP180;53212;52.112;5.144;2023-12-14T09:39:26;101840.80;;;6.34
66403;BMP180;53212;52.112;5.144;2023-12-14T09:42:02;101842.60;;;6.30
66403;BMP180;53212;52.112;5.144;2023-12-14T09:44:30;101842.40;;;6.30
66403;BMP180;53212;52.112;5.144;2023-12-14T09:46:58;101853.20;;;6.30
66403;BMP180;53212;52.112;5.144;2023-12-14T09:49:29;101860.80;;;6.40
66403;BMP180;53212;52.112;5.144;2023-12-14T09:51:59;101862.40;;;6.42
66403;BMP180;53212;52.112;5.144;2023-12-14T09:54:26;101864.20;;;6.58
66403;BMP180;53212;52.112;5.144;2023-12-14T09:56:52;101867.80;;;6.60
66403;BMP180;53212;52.112;5.144;2023-12-14T09:59:19;101874.00;;;6.70
66403;BMP180;53212;52.112;5.144;2023-12-14T10:01:46;101869.00;;;6.70
66403;BMP180;53212;52.112;5.144;2023-12-14T10:04:15;101876.20;;;6.80
66403;BMP180;53212;52.112;5.144;2023-12-14T10:06:43;101874.80;;;6.90
66403;BMP180;53212;52.112;5.144;2023-12-14T10:09:09;101878.60;;;6.90
66403;BMP180;53212;52.112;5.144;2023-12-14T10:11:38;101880.80;;;6.98
66403;BMP180;53212;52.112;5.144;2023-12-14T10:14:22;101887.00;;;6.90
66403;BMP180;53212;52.112;5.144;2023-12-14T10:16:49;101896.00;;;7.00
66403;BMP180;53212;52.112;5.144;2023-12-14T10:19:18;101898.20;;;7.00
66403;BMP180;53212;52.112;5.144;2023-12-14T10:21:48;101896.20;;;7.00
66403;BMP180;53212;52.112;5.144;2023-12-14T10:24:15;101897.40;;;6.94
66403;BMP180;53212;52.112;5.144;2023-12-14T10:26:41;101897.20;;;6.90
66403;BMP180;53212;52.112;5.144;2023-12-14T10:29:07;101897.00;;;6.90
66403;BMP180;53212;52.112;5.144;2023-12-14T10:31:33;101897.00;;;6.80
66403;BMP180;53212;52.112;5.144;2023-12-14T10:34:05;101902.80;;;6.80
66403;BMP180;53212;52.112;5.144;2023-12-14T10:36:31;101908.20;;;6.80
66403;BMP180;53212;52.112;5.144;2023-12-14T10:38:59;101912.40;;;6.80
66403;BMP180;53212;52.112;5.144;2023-12-14T10:41:25;101919.00;;;6.80
66403;BMP180;53212;52.112;5.144;2023-12-14T10:43:54;101916.80;;;6.70
66403;BMP180;53212;52.112;5.144;2023-12-14T10:46:21;101911.00;;;6.70
66403;BMP180;53212;52.112;5.144;2023-12-14T10:48:51;101919.20;;;6.60
66403;BMP180;53212;52.112;5.144;2023-12-14T10:51:21;101918.80;;;6.60
66403;BMP180;53212;52.112;5.144;2023-12-14T10:53:47;101921.00;;;6.60
66403;BMP180;53212;52.112;5.144;2023-12-14T10:56:16;101928.40;;;6.60
66403;BMP180;53212;52.112;5.144;2023-12-14T10:58:48;101929.40;;;6.56
66403;BMP180;53212;52.112;5.144;2023-12-14T11:01:20;101933.20;;;6.50
66403;BMP180;53212;52.112;5.144;2023-12-14T11:03:48;101937.60;;;6.50
66403;BMP180;53212;52.112;5.144;2023-12-14T11:06:37;101934.00;;;6.60
66403;BMP180;53212;52.112;5.144;2023-12-14T11:09:08;101931.00;;;6.60
66403;BMP180;53212;52.112;5.144;2023-12-14T11:11:54;101923.80;;;6.70
66403;BMP180;53212;52.112;5.144;2023-12-14T11:14:25;101934.80;;;6.70
66403;BMP180;53212;52.112;5.144;2023-12-14T11:17:06;101930.20;;;6.70
66403;BMP180;53212;52.112;5.144;2023-12-14T11:19:32;101936.00;;;6.72
66403;BMP180;53212;52.112;5.144;2023-12-14T11:22:11;101946.40;;;6.80
66403;BMP180;53212;52.112;5.144;2023-12-14T11:24:41;101948.20;;;6.90
66403;BMP180;53212;52.112;5.144;2023-12-14T11:27:09;101950.20;;;7.00
66403;BMP180;53212;52.112;5.144;2023-12-14T11:29:38;101944.00;;;7.00
66403;BMP180;53212;52.112;5.144;2023-12-14T11:32:06;101945.80;;;7.00
66403;BMP180;53212;52.112;5.144;2023-12-14T11:34:33;101944.60;;;7.00
66403;BMP180;53212;52.112;5.144;2023-12-14T11:36:58;101950.60;;;6.98
66403;BMP180;53212;52.112;5.144;2023-12-14T11:39:24;101954.40;;;6.92
66403;BMP180;53212;52.112;5.144;2023-12-14T11:42:04;101951.40;;;6.92
66403;BMP180;53212;52.112;5.144;2023-12-14T11:44:32;101949.80;;;7.00
66403;BMP180;53212;52.112;5.144;2023-12-14T11:46:57;101946.80;;;7.00
66403;BMP180;53212;52.112;5.144;2023-12-14T11:49:26;101952.80;;;6.90
66403;BMP180;53212;52.112;5.144;2023-12-14T11:51:54;101955.60;;;6.98
66403;BMP180;53212;52.112;5.144;2023-12-14T11:54:20;101964.00;;;7.10
66403;BMP180;53212;52.112;5.144;2023-12-14T11:56:50;101970.20;;;7.10
66403;BMP180;53212;52.112;5.144;2023-12-14T11:59:18;101971.00;;;7.00
66403;BMP180;53212;52.112;5.144;2023-12-14T12:01:59;101978.80;;;7.00
66403;BMP180;53212;52.112;5.144;2023-12-14T12:04:25;101982.60;;;7.00
66403;BMP180;53212;52.112;5.144;2023-12-14T12:07:05;101980.60;;;7.04
66403;BMP180;53212;52.112;5.144;2023-12-14T12:09:41;101981.40;;;7.10
66403;BMP180;53212;52.112;5.144;2023-12-14T12:12:11;101978.40;;;7.00
66403;BMP180;53212;52.112;5.144;2023-12-14T12:14:39;101979.60;;;7.06
66403;BMP180;53212;52.112;5.144;2023-12-14T12:17:05;101980.80;;;7.10
66403;BMP180;53212;52.112;5.144;2023-12-14T12:19:36;101980.00;;;7.10
66403;BMP180;53212;52.112;5.144;2023-12-14T12:22:03;101981.80;;;7.20
66403;BMP180;53212;52.112;5.144;2023-12-14T12:24:29;101986.40;;;7.20
66403;BMP180;53212;52.112;5.144;2023-12-14T12:26:55;101988.80;;;7.20
66403;BMP180;53212;52.112;5.144;2023-12-14T12:29:22;101982.80;;;7.20
66403;BMP180;53212;52.112;5.144;2023-12-14T12:31:48;101989.40;;;7.10
66403;BMP180;53212;52.112;5.144;2023-12-14T12:34:14;101992.20;;;7.10
66403;BMP180;53212;52.112;5.144;2023-12-14T12:36:40;101991.00;;;7.10
66403;BMP180;53212;52.112;5.144;2023-12-14T12:39:05;101995.00;;;7.10
66403;BMP180;53212;52.112;5.144;2023-12-14T12:41:32;101996.20;;;7.10
66403;BMP180;53212;52.112;5.144;2023-12-14T12:44:07;101990.80;;;7.10
66403;BMP180;53212;52.112;5.144;2023-12-14T12:46:38;101991.40;;;7.10
66403;BMP180;53212;52.112;5.144;2023-12-14T12:49:04;101992.00;;;7.10
66403;BMP180;53212;52.112;5.144;2023-12-14T12:51:31;101990.00;;;7.20
66403;BMP180;53212;52.112;5.144;2023-12-14T12:54:00;101987.00;;;7.24
66403;BMP180;53212;52.112;5.144;2023-12-14T12:56:29;101982.60;;;7.30
66403;BMP180;53212;52.112;5.144;2023-12-14T12:58:55;101984.60;;;7.30
66403;BMP180;53212;52.112;5.144;2023-12-14T13:01:23;101986.20;;;7.30
66403;BMP180;53212;52.112;5.144;2023-12-14T13:03:54;101992.40;;;7.20
66403;BMP180;53212;52.112;5.144;2023-12-14T13:06:23;102000.60;;;7.20
66403;BMP180;53212;52.112;5.144;2023-12-14T13:08:48;102005.40;;;7.20
66403;BMP180;53212;52.112;5.144;2023-12-14T13:11:30;102013.20;;;7.10
66403;BMP180;53212;52.112;5.144;2023-12-14T13:13:56;102014.60;;;7.10
66403;BMP180;53212;52.112;5.144;2023-12-14T13:16:21;102022.40;;;7.00
66403;BMP180;53212;52.112;5.144;2023-12-14T13:18:48;102018.80;;;6.90
66403;BMP180;53212;52.112;5.144;2023-12-14T13:21:13;102016.20;;;6.90
66403;BMP180;53212;52.112;5.144;2023-12-14T13:23:39;102015.60;;;6.84
66403;BMP180;53212;52.112;5.144;2023-12-14T13:26:06;102016.60;;;6.90
66403;BMP180;53212;52.112;5.144;2023-12-14T13:28:31;102016.00;;;6.90
66403;BMP180;53212;52.112;5.144;2023-12-14T13:30:56;102013.00;;;7.00
66403;BMP180;53212;52.112;5.144;2023-12-14T13:33:22;102017.80;;;7.10
66403;BMP180;53212;52.112;5.144;2023-12-14T13:35:47;102024.80;;;7.10
66403;BMP180;53212;52.112;5.144;2023-12-14T13:38:13;102030.20;;;7.10
66403;BMP180;53212;52.112;5.144;2023-12-14T13:40:38;102027.00;;;7.10
66403;BMP180;53212;52.112;5.144;2023-12-14T13:43:04;102029.20;;;7.10
66403;BMP180;53212;52.112;5.144;2023-12-14T13:45:37;102029.60;;;6.96
66403;BMP180;53212;52.112;5.144;2023-12-14T13:48:02;102039.00;;;6.90
66403;BMP180;53212;52.112;5.144;2023-12-14T13:50:28;102043.00;;;6.80
66403;BMP180;53212;52.112;5.144;2023-12-14T13:52:53;102050.40;;;6.70
66403;BMP180;53212;52.112;5.144;2023-12-14T13:55:19;102045.40;;;6.64
66403;BMP180;53212;52.112;5.144;2023-12-14T13:57:44;102048.60;;;6.60
66403;BMP180;53212;52.112;5.144;2023-12-14T14:00:12;102050.40;;;6.60
66403;BMP180;53212;52.112;5.144;2023-12-14T14:02:38;102059.20;;;6.60
66403;BMP180;53212;52.112;5.144;2023-12-14T14:05:03;102061.40;;;6.60